sensor_id;sensor_type;location;lat;lon;timestamp;temperature;humidity
5930;DHT22;2990;48.746;9.236;2022-07-29T00:00:05;19.00;1.00
5930;DHT22;2990;48.746;9.236;2022-07-29T00:02:31;19.00;1.00
5930;DHT22;2990;48.746;9.236;2022-07-29T00:04:57;19.00;1.00
5930;DHT22;2990;48.746;9.236;2022-07-29T00:07:23;19.00;1.00
5930;DHT22;2990;48.746;9.236;2022-07-29T00:09:48;19.00;1.00
5930;DHT22;2990;48.746;9.236;2022-07-29T00:12:14;19.10;1.00
5930;DHT22;2990;48.746;9.236;2022-07-29T00:14:39;19.10;1.00
5930;DHT22;2990;48.746;9.236;2022-07-29T00:17:05;19.10;1.00
5930;DHT22;2990;48.746;9.236;2022-07-29T00:19:30;19.10;1.00
5930;DHT22;2990;48.746;9.236;2022-07-29T00:21:56;19.20;1.00
5930;DHT22;2990;48.746;9.236;2022-07-29T00:24:22;19.20;1.00
5930;DHT22;2990;48.746;9.236;2022-07-29T00:26:47;19.20;1.00
5930;DHT22;2990;48.746;9.236;2022-07-29T00:29:13;19.10;1.00
5930;DHT22;2990;48.746;9.236;2022-07-29T00:31:38;19.10;1.00
5930;DHT22;2990;48.746;9.236;2022-07-29T00:34:04;19.10;1.00
5930;DHT22;2990;48.746;9.236;2022-07-29T00:36:29;19.10;1.00
5930;DHT22;2990;48.746;9.236;2022-07-29T00:38:55;19.10;1.00
5930;DHT22;2990;48.746;9.236;2022-07-29T00:41:20;19.00;1.00
5930;DHT22;2990;48.746;9.236;2022-07-29T00:43:47;19.00;1.00
5930;DHT22;2990;48.746;9.236;2022-07-29T00:46:12;19.00;1.00
5930;DHT22;2990;48.746;9.236;2022-07-29T00:48:38;18.90;1.00
5930;DHT22;2990;48.746;9.236;2022-07-29T00:51:05;18.90;1.00
5930;DHT22;2990;48.746;9.236;2022-07-29T00:53:31;18.80;1.00
5930;DHT22;2990;48.746;9.236;2022-07-29T00:55:58;18.90;1.00
5930;DHT22;2990;48.746;9.236;2022-07-29T00:58:24;18.90;1.00
5930;DHT22;2990;48.746;9.236;2022-07-29T01:00:50;18.90;1.00
5930;DHT22;2990;48.746;9.236;2022-07-29T01:03:16;18.80;1.00
5930;DHT22;2990;48.746;9.236;2022-07-29T01:05:42;18.80;1.00
5930;DHT22;2990;48.746;9.236;2022-07-29T01:08:08;18.80;1.00
5930;DHT22;2990;48.746;9.236;2022-07-29T01:10:36;18.80;1.00
5930;DHT22;2990;48.746;9.236;2022-07-29T01:13:03;18.80;1.00
5930;DHT22;2990;48.746;9.236;2022-07-29T01:15:30;18.70;1.00
5930;DHT22;2990;48.746;9.236;2022-07-29T01:18:03;18.70;1.00
5930;DHT22;2990;48.746;9.236;2022-07-29T01:23:17;18.80;1.00
5930;DHT22;2990;48.746;9.236;2022-07-29T01:26:16;18.80;1.00
5930;DHT22;2990;48.746;9.236;2022-07-29T01:31:51;18.70;1.00
5930;DHT22;2990;48.746;9.236;2022-07-29T01:34:25;18.70;1.00
5930;DHT22;2990;48.746;9.236;2022-07-29T01:37:15;18.70;1.00
5930;DHT22;2990;48.746;9.236;2022-07-29T01:39:43;18.60;1.00
5930;DHT22;2990;48.746;9.236;2022-07-29T01:42:21;18.50;1.00
5930;DHT22;2990;48.746;9.236;2022-07-29T01:45:14;18.60;1.00
5930;DHT22;2990;48.746;9.236;2022-07-29T01:50:46;18.50;1.00
5930;DHT22;2990;48.746;9.236;2022-07-29T01:53:16;18.50;1.00
5930;DHT22;2990;48.746;9.236;2022-07-29T01:55:44;18.40;1.00
5930;DHT22;2990;48.746;9.236;2022-07-29T01:58:12;18.40;1.00
5930;DHT22;2990;48.746;9.236;2022-07-29T02:00:40;18.40;1.00
5930;DHT22;2990;48.746;9.236;2022-07-29T02:03:11;18.40;1.00
5930;DHT22;2990;48.746;9.236;2022-07-29T02:05:41;18.40;1.00
5930;DHT22;2990;48.746;9.236;2022-07-29T02:08:08;18.50;1.00
5930;DHT22;2990;48.746;9.236;2022-07-29T02:10:36;18.40;1.00
5930;DHT22;2990;48.746;9.236;2022-07-29T02:13:03;18.40;1.00
5930;DHT22;2990;48.746;9.236;2022-07-29T02:15:32;18.40;1.00
5930;DHT22;2990;48.746;9.236;2022-07-29T02:18:07;18.40;1.00
5930;DHT22;2990;48.746;9.236;2022-07-29T02:20:34;18.40;1.00
5930;DHT22;2990;48.746;9.236;2022-07-29T02:23:00;18.30;1.00
5930;DHT22;2990;48.746;9.236;2022-07-29T02:25:27;18.30;1.00
5930;DHT22;2990;48.746;9.236;2022-07-29T02:27:54;18.30;1.00
5930;DHT22;2990;48.746;9.236;2022-07-29T02:30:22;18.20;1.00
5930;DHT22;2990;48.746;9.236;2022-07-29T02:32:49;18.20;1.00
5930;DHT22;2990;48.746;9.236;2022-07-29T02:35:16;18.10;1.00
5930;DHT22;2990;48.746;9.236;2022-07-29T02:37:43;18.10;1.00
5930;DHT22;2990;48.746;9.236;2022-07-29T02:40:11;18.10;1.00
5930;DHT22;2990;48.746;9.236;2022-07-29T02:42:41;18.10;1.00
5930;DHT22;2990;48.746;9.236;2022-07-29T02:45:08;18.10;1.00
5930;DHT22;2990;48.746;9.236;2022-07-29T02:47:37;18.10;1.00
5930;DHT22;2990;48.746;9.236;2022-07-29T02:50:16;18.10;1.00
5930;DHT22;2990;48.746;9.236;2022-07-29T02:52:51;18.10;1.00
5930;DHT22;2990;48.746;9.236;2022-07-29T02:55:48;18.10;1.00
5930;DHT22;2990;48.746;9.236;2022-07-29T02:58:32;18.10;1.00
5930;DHT22;2990;48.746;9.236;2022-07-29T03:01:17;18.10;1.00
5930;DHT22;2990;48.746;9.236;2022-07-29T03:03:46;18.10;1.00
5930;DHT22;2990;48.746;9.236;2022-07-29T03:06:15;18.00;1.00
5930;DHT22;2990;48.746;9.236;2022-07-29T03:08:42;18.00;1.00
5930;DHT22;2990;48.746;9.236;2022-07-29T03:11:08;18.00;1.00
5930;DHT22;2990;48.746;9.236;2022-07-29T03:13:35;18.10;1.00
5930;DHT22;2990;48.746;9.236;2022-07-29T03:16:01;18.10;1.00
5930;DHT22;2990;48.746;9.236;2022-07-29T03:18:28;18.10;1.00
5930;DHT22;2990;48.746;9.236;2022-07-29T03:20:54;18.10;1.00
5930;DHT22;2990;48.746;9.236;2022-07-29T03:23:21;18.00;1.00
5930;DHT22;2990;48.746;9.236;2022-07-29T03:25:49;18.00;1.00
5930;DHT22;2990;48.746;9.236;2022-07-29T03:28:15;18.00;1.00
5930;DHT22;2990;48.746;9.236;2022-07-29T03:30:41;18.00;1.00
5930;DHT22;2990;48.746;9.236;2022-07-29T03:33:06;18.00;1.00
5930;DHT22;2990;48.746;9.236;2022-07-29T03:35:32;18.00;1.00
5930;DHT22;2990;48.746;9.236;2022-07-29T03:37:58;18.00;1.00
5930;DHT22;2990;48.746;9.236;2022-07-29T03:40:37;18.00;1.00
5930;DHT22;2990;48.746;9.236;2022-07-29T03:43:04;18.00;1.00
5930;DHT22;2990;48.746;9.236;2022-07-29T03:45:32;18.00;1.00
5930;DHT22;2990;48.746;9.236;2022-07-29T03:48:05;17.90;1.00
5930;DHT22;2990;48.746;9.236;2022-07-29T03:50:33;17.90;1.00
5930;DHT22;2990;48.746;9.236;2022-07-29T03:52:58;17.90;1.00
5930;DHT22;2990;48.746;9.236;2022-07-29T03:55:25;17.80;1.00
5930;DHT22;2990;48.746;9.236;2022-07-29T03:57:52;17.80;1.00
5930;DHT22;2990;48.746;9.236;2022-07-29T04:00:18;17.90;1.00
5930;DHT22;2990;48.746;9.236;2022-07-29T04:02:44;17.80;1.00
5930;DHT22;2990;48.746;9.236;2022-07-29T04:05:14;17.80;1.00
5930;DHT22;2990;48.746;9.236;2022-07-29T04:07:43;17.80;1.00
5930;DHT22;2990;48.746;9.236;2022-07-29T04:10:09;17.80;1.00
5930;DHT22;2990;48.746;9.236;2022-07-29T04:12:34;17.90;1.00
5930;DHT22;2990;48.746;9.236;2022-07-29T04:15:01;17.70;1.00
5930;DHT22;2990;48.746;9.236;2022-07-29T04:17:26;17.80;1.00
5930;DHT22;2990;48.746;9.236;2022-07-29T04:19:52;17.80;1.00
5930;DHT22;2990;48.746;9.236;2022-07-29T04:22:18;17.80;1.00
5930;DHT22;2990;48.746;9.236;2022-07-29T04:24:43;17.80;1.00
5930;DHT22;2990;48.746;9.236;2022-07-29T04:27:09;17.80;1.00
5930;DHT22;2990;48.746;9.236;2022-07-29T04:29:34;17.80;1.00
5930;DHT22;2990;48.746;9.236;2022-07-29T04:32:00;17.80;1.00
5930;DHT22;2990;48.746;9.236;2022-07-29T04:34:25;17.80;1.00
5930;DHT22;2990;48.746;9.236;2022-07-29T04:36:51;17.80;1.00
5930;DHT22;2990;48.746;9.236;2022-07-29T04:39:16;17.80;1.00
5930;DHT22;2990;48.746;9.236;2022-07-29T04:41:44;17.80;1.00
5930;DHT22;2990;48.746;9.236;2022-07-29T04:44:09;17.80;1.00
5930;DHT22;2990;48.746;9.236;2022-07-29T04:46:35;17.90;1.00
5930;DHT22;2990;48.746;9.236;2022-07-29T04:49:02;18.00;1.00
5930;DHT22;2990;48.746;9.236;2022-07-29T04:51:28;18.00;1.00
5930;DHT22;2990;48.746;9.236;2022-07-29T04:53:54;18.00;1.00
5930;DHT22;2990;48.746;9.236;2022-07-29T04:56:20;18.10;1.00
5930;DHT22;2990;48.746;9.236;2022-07-29T04:58:46;18.10;1.00
5930;DHT22;2990;48.746;9.236;2022-07-29T05:01:12;18.30;1.00
5930;DHT22;2990;48.746;9.236;2022-07-29T05:03:37;18.20;1.00
5930;DHT22;2990;48.746;9.236;2022-07-29T05:06:03;18.20;1.00
5930;DHT22;2990;48.746;9.236;2022-07-29T05:08:28;18.30;1.00
5930;DHT22;2990;48.746;9.236;2022-07-29T05:10:54;18.40;1.00
5930;DHT22;2990;48.746;9.236;2022-07-29T05:13:19;18.50;1.00
5930;DHT22;2990;48.746;9.236;2022-07-29T05:15:45;18.60;1.00
5930;DHT22;2990;48.746;9.236;2022-07-29T05:18:11;18.70;1.00
5930;DHT22;2990;48.746;9.236;2022-07-29T05:20:36;18.80;1.00
5930;DHT22;2990;48.746;9.236;2022-07-29T05:23:03;18.90;1.00
5930;DHT22;2990;48.746;9.236;2022-07-29T05:25:29;19.10;1.00
5930;DHT22;2990;48.746;9.236;2022-07-29T05:27:55;19.10;99.90
5930;DHT22;2990;48.746;9.236;2022-07-29T05:30:21;19.20;99.90
5930;DHT22;2990;48.746;9.236;2022-07-29T05:32:47;19.20;99.90
5930;DHT22;2990;48.746;9.236;2022-07-29T05:35:14;19.30;98.40
5930;DHT22;2990;48.746;9.236;2022-07-29T05:37:39;19.40;1.00
5930;DHT22;2990;48.746;9.236;2022-07-29T05:40:06;19.50;99.90
5930;DHT22;2990;48.746;9.236;2022-07-29T05:42:32;19.50;1.00
5930;DHT22;2990;48.746;9.236;2022-07-29T05:44:57;19.60;1.00
5930;DHT22;2990;48.746;9.236;2022-07-29T05:47:23;19.70;14.90
5930;DHT22;2990;48.746;9.236;2022-07-29T05:49:49;19.60;1.00
5930;DHT22;2990;48.746;9.236;2022-07-29T05:52:16;19.60;99.90
5930;DHT22;2990;48.746;9.236;2022-07-29T05:54:41;19.70;99.90
5930;DHT22;2990;48.746;9.236;2022-07-29T05:57:07;19.80;58.00
5930;DHT22;2990;48.746;9.236;2022-07-29T05:59:36;19.70;11.00
5930;DHT22;2990;48.746;9.236;2022-07-29T06:02:03;19.80;1.00
5930;DHT22;2990;48.746;9.236;2022-07-29T06:04:30;19.70;1.00
5930;DHT22;2990;48.746;9.236;2022-07-29T06:06:59;19.80;1.00
5930;DHT22;2990;48.746;9.236;2022-07-29T06:09:25;19.90;1.00
5930;DHT22;2990;48.746;9.236;2022-07-29T06:11:51;19.90;1.00
5930;DHT22;2990;48.746;9.236;2022-07-29T06:14:17;20.10;99.90
5930;DHT22;2990;48.746;9.236;2022-07-29T06:16:43;20.30;1.00
5930;DHT22;2990;48.746;9.236;2022-07-29T06:19:09;20.30;99.90
5930;DHT22;2990;48.746;9.236;2022-07-29T06:21:35;20.20;1.00
5930;DHT22;2990;48.746;9.236;2022-07-29T06:24:01;20.40;99.90
5930;DHT22;2990;48.746;9.236;2022-07-29T06:26:27;20.50;99.90
5930;DHT22;2990;48.746;9.236;2022-07-29T06:28:53;20.60;99.90
5930;DHT22;2990;48.746;9.236;2022-07-29T06:31:18;20.80;99.90
5930;DHT22;2990;48.746;9.236;2022-07-29T06:33:44;21.00;1.00
5930;DHT22;2990;48.746;9.236;2022-07-29T06:36:09;21.20;1.00
5930;DHT22;2990;48.746;9.236;2022-07-29T06:38:35;21.30;99.90
5930;DHT22;2990;48.746;9.236;2022-07-29T06:41:01;21.30;99.90
5930;DHT22;2990;48.746;9.236;2022-07-29T06:43:33;21.40;93.60
5930;DHT22;2990;48.746;9.236;2022-07-29T06:46:04;21.60;1.00
5930;DHT22;2990;48.746;9.236;2022-07-29T06:48:30;21.70;1.00
5930;DHT22;2990;48.746;9.236;2022-07-29T06:50:55;21.80;1.00
5930;DHT22;2990;48.746;9.236;2022-07-29T06:53:21;21.90;37.10
5930;DHT22;2990;48.746;9.236;2022-07-29T06:55:47;22.00;1.00
5930;DHT22;2990;48.746;9.236;2022-07-29T06:58:12;22.10;1.00
5930;DHT22;2990;48.746;9.236;2022-07-29T07:00:41;22.00;99.90
5930;DHT22;2990;48.746;9.236;2022-07-29T07:03:07;21.90;1.00
5930;DHT22;2990;48.746;9.236;2022-07-29T07:05:32;21.90;1.00
5930;DHT22;2990;48.746;9.236;2022-07-29T07:07:58;21.80;1.00
5930;DHT22;2990;48.746;9.236;2022-07-29T07:10:23;21.80;1.00
5930;DHT22;2990;48.746;9.236;2022-07-29T07:12:49;21.80;1.00
5930;DHT22;2990;48.746;9.236;2022-07-29T07:15:14;21.80;1.00
5930;DHT22;2990;48.746;9.236;2022-07-29T07:17:40;21.90;1.00
5930;DHT22;2990;48.746;9.236;2022-07-29T07:20:06;21.90;1.00
5930;DHT22;2990;48.746;9.236;2022-07-29T07:22:31;22.00;1.00
5930;DHT22;2990;48.746;9.236;2022-07-29T07:24:57;22.10;1.00
5930;DHT22;2990;48.746;9.236;2022-07-29T07:27:22;22.10;99.90
5930;DHT22;2990;48.746;9.236;2022-07-29T07:29:48;22.30;99.90
5930;DHT22;2990;48.746;9.236;2022-07-29T07:32:14;22.40;99.90
5930;DHT22;2990;48.746;9.236;2022-07-29T07:34:42;22.20;99.90
5930;DHT22;2990;48.746;9.236;2022-07-29T07:37:08;22.30;99.90
5930;DHT22;2990;48.746;9.236;2022-07-29T07:39:33;22.30;99.90
5930;DHT22;2990;48.746;9.236;2022-07-29T07:41:59;22.20;99.90
5930;DHT22;2990;48.746;9.236;2022-07-29T07:44:25;22.30;1.00
5930;DHT22;2990;48.746;9.236;2022-07-29T07:46:50;22.20;1.00
5930;DHT22;2990;48.746;9.236;2022-07-29T07:49:16;22.20;1.00
5930;DHT22;2990;48.746;9.236;2022-07-29T07:51:42;22.40;1.00
5930;DHT22;2990;48.746;9.236;2022-07-29T07:54:13;22.70;99.90
5930;DHT22;2990;48.746;9.236;2022-07-29T07:56:39;22.90;99.90
5930;DHT22;2990;48.746;9.236;2022-07-29T07:59:05;23.10;1.00
5930;DHT22;2990;48.746;9.236;2022-07-29T08:01:30;23.20;1.00
5930;DHT22;2990;48.746;9.236;2022-07-29T08:03:56;23.20;1.00
5930;DHT22;2990;48.746;9.236;2022-07-29T08:06:21;23.30;1.00
5930;DHT22;2990;48.746;9.236;2022-07-29T08:08:49;23.30;1.00
5930;DHT22;2990;48.746;9.236;2022-07-29T08:11:14;23.30;1.00
5930;DHT22;2990;48.746;9.236;2022-07-29T08:13:40;23.50;1.00
5930;DHT22;2990;48.746;9.236;2022-07-29T08:16:06;23.60;1.00
5930;DHT22;2990;48.746;9.236;2022-07-29T08:18:40;23.80;99.90
5930;DHT22;2990;48.746;9.236;2022-07-29T08:21:07;24.20;99.90
5930;DHT22;2990;48.746;9.236;2022-07-29T08:23:33;24.40;99.90
5930;DHT22;2990;48.746;9.236;2022-07-29T08:26:11;24.40;99.90
5930;DHT22;2990;48.746;9.236;2022-07-29T08:31:04;24.50;99.90
5930;DHT22;2990;48.746;9.236;2022-07-29T08:35:56;24.80;99.90
5930;DHT22;2990;48.746;9.236;2022-07-29T08:38:21;25.20;93.00
5930;DHT22;2990;48.746;9.236;2022-07-29T08:40:47;25.30;39.60
5930;DHT22;2990;48.746;9.236;2022-07-29T08:43:12;25.50;32.60
5930;DHT22;2990;48.746;9.236;2022-07-29T08:45:47;25.70;50.00
5930;DHT22;2990;48.746;9.236;2022-07-29T08:48:14;25.70;13.90
5930;DHT22;2990;48.746;9.236;2022-07-29T08:50:41;25.70;1.00
5930;DHT22;2990;48.746;9.236;2022-07-29T08:53:10;25.60;1.00
5930;DHT22;2990;48.746;9.236;2022-07-29T08:55:38;25.50;7.50
5930;DHT22;2990;48.746;9.236;2022-07-29T08:58:04;25.70;1.00
5930;DHT22;2990;48.746;9.236;2022-07-29T09:00:31;25.80;1.00
5930;DHT22;2990;48.746;9.236;2022-07-29T09:02:57;25.80;1.00
5930;DHT22;2990;48.746;9.236;2022-07-29T09:05:25;25.80;1.00
5930;DHT22;2990;48.746;9.236;2022-07-29T09:07:52;25.80;1.00
5930;DHT22;2990;48.746;9.236;2022-07-29T09:10:17;26.00;1.00
5930;DHT22;2990;48.746;9.236;2022-07-29T09:12:43;26.10;1.00
5930;DHT22;2990;48.746;9.236;2022-07-29T09:15:10;26.20;1.00
5930;DHT22;2990;48.746;9.236;2022-07-29T09:17:43;26.20;1.00
5930;DHT22;2990;48.746;9.236;2022-07-29T09:20:17;26.10;1.00
5930;DHT22;2990;48.746;9.236;2022-07-29T09:22:43;26.20;1.00
5930;DHT22;2990;48.746;9.236;2022-07-29T09:27:37;26.30;1.00
5930;DHT22;2990;48.746;9.236;2022-07-29T09:35:34;26.30;1.00
5930;DHT22;2990;48.746;9.236;2022-07-29T09:38:10;26.40;1.00
5930;DHT22;2990;48.746;9.236;2022-07-29T09:40:36;26.30;1.00
5930;DHT22;2990;48.746;9.236;2022-07-29T09:43:13;26.40;1.00
5930;DHT22;2990;48.746;9.236;2022-07-29T09:45:39;26.30;1.00
5930;DHT22;2990;48.746;9.236;2022-07-29T09:48:19;26.50;1.00
5930;DHT22;2990;48.746;9.236;2022-07-29T09:58:21;26.50;1.00
5930;DHT22;2990;48.746;9.236;2022-07-29T10:55:46;27.70;1.00
5930;DHT22;2990;48.746;9.236;2022-07-29T10:58:15;25.50;1.00
5930;DHT22;2990;48.746;9.236;2022-07-29T11:00:41;25.40;1.00
5930;DHT22;2990;48.746;9.236;2022-07-29T11:03:07;25.30;1.00
5930;DHT22;2990;48.746;9.236;2022-07-29T11:05:55;25.20;1.00
5930;DHT22;2990;48.746;9.236;2022-07-29T11:08:22;25.10;1.00
5930;DHT22;2990;48.746;9.236;2022-07-29T11:16:03;23.70;1.00
5930;DHT22;2990;48.746;9.236;2022-07-29T11:18:30;22.80;99.90
5930;DHT22;2990;48.746;9.236;2022-07-29T11:20:56;21.40;99.90
5930;DHT22;2990;48.746;9.236;2022-07-29T11:23:30;20.10;1.00
5930;DHT22;2990;48.746;9.236;2022-07-29T14:28:19;17.80;99.90
5930;DHT22;2990;48.746;9.236;2022-07-29T14:30:45;19.40;99.90
5930;DHT22;2990;48.746;9.236;2022-07-29T14:33:10;19.50;99.90
5930;DHT22;2990;48.746;9.236;2022-07-29T14:35:36;19.70;99.90
5930;DHT22;2990;48.746;9.236;2022-07-29T14:38:02;19.90;99.90
5930;DHT22;2990;48.746;9.236;2022-07-29T14:40:27;19.90;99.90
5930;DHT22;2990;48.746;9.236;2022-07-29T14:42:53;19.90;99.90
5930;DHT22;2990;48.746;9.236;2022-07-29T14:45:18;19.90;99.90
5930;DHT22;2990;48.746;9.236;2022-07-29T14:47:44;19.90;99.90
5930;DHT22;2990;48.746;9.236;2022-07-29T14:50:10;20.00;99.90
5930;DHT22;2990;48.746;9.236;2022-07-29T14:52:35;20.00;99.90
5930;DHT22;2990;48.746;9.236;2022-07-29T14:55:01;20.10;99.90
5930;DHT22;2990;48.746;9.236;2022-07-29T14:57:27;20.10;99.90
5930;DHT22;2990;48.746;9.236;2022-07-29T14:59:53;20.20;99.90
5930;DHT22;2990;48.746;9.236;2022-07-29T15:02:20;20.20;99.90
5930;DHT22;2990;48.746;9.236;2022-07-29T15:04:46;20.20;99.90
5930;DHT22;2990;48.746;9.236;2022-07-29T15:07:13;20.30;99.90
5930;DHT22;2990;48.746;9.236;2022-07-29T15:09:39;20.40;99.90
5930;DHT22;2990;48.746;9.236;2022-07-29T15:12:04;20.40;99.90
5930;DHT22;2990;48.746;9.236;2022-07-29T15:14:31;20.40;99.90
5930;DHT22;2990;48.746;9.236;2022-07-29T15:16:57;20.40;81.20
5930;DHT22;2990;48.746;9.236;2022-07-29T15:19:23;20.40;71.00
5930;DHT22;2990;48.746;9.236;2022-07-29T15:21:49;20.40;95.10
5930;DHT22;2990;48.746;9.236;2022-07-29T15:24:17;20.40;99.90
5930;DHT22;2990;48.746;9.236;2022-07-29T15:26:42;20.50;99.90
5930;DHT22;2990;48.746;9.236;2022-07-29T15:29:08;20.50;99.90
5930;DHT22;2990;48.746;9.236;2022-07-29T15:31:34;20.60;99.90
5930;DHT22;2990;48.746;9.236;2022-07-29T15:33:59;20.60;99.90
5930;DHT22;2990;48.746;9.236;2022-07-29T15:36:25;20.70;99.90
5930;DHT22;2990;48.746;9.236;2022-07-29T15:38:54;20.70;93.90
5930;DHT22;2990;48.746;9.236;2022-07-29T15:41:20;20.60;65.30
5930;DHT22;2990;48.746;9.236;2022-07-29T15:43:47;20.70;58.40
5930;DHT22;2990;48.746;9.236;2022-07-29T15:46:14;20.70;62.10
5930;DHT22;2990;48.746;9.236;2022-07-29T15:48:59;20.70;37.80
5930;DHT22;2990;48.746;9.236;2022-07-29T15:51:25;20.70;43.30
5930;DHT22;2990;48.746;9.236;2022-07-29T15:53:50;20.70;43.00
5930;DHT22;2990;48.746;9.236;2022-07-29T15:56:16;20.70;17.40
5930;DHT22;2990;48.746;9.236;2022-07-29T15:58:42;20.70;10.70
5930;DHT22;2990;48.746;9.236;2022-07-29T16:01:08;20.70;1.00
5930;DHT22;2990;48.746;9.236;2022-07-29T16:03:33;20.70;1.00
5930;DHT22;2990;48.746;9.236;2022-07-29T16:05:59;20.70;1.00
5930;DHT22;2990;48.746;9.236;2022-07-29T16:08:25;20.70;1.00
5930;DHT22;2990;48.746;9.236;2022-07-29T16:10:50;20.60;1.00
5930;DHT22;2990;48.746;9.236;2022-07-29T16:13:16;20.60;1.00
5930;DHT22;2990;48.746;9.236;2022-07-29T16:15:42;20.60;1.00
5930;DHT22;2990;48.746;9.236;2022-07-29T16:18:07;20.60;1.00
5930;DHT22;2990;48.746;9.236;2022-07-29T16:20:35;20.60;1.00
5930;DHT22;2990;48.746;9.236;2022-07-29T16:23:00;20.60;1.00
5930;DHT22;2990;48.746;9.236;2022-07-29T16:25:26;20.60;1.00
5930;DHT22;2990;48.746;9.236;2022-07-29T16:27:53;20.60;1.00
5930;DHT22;2990;48.746;9.236;2022-07-29T16:30:19;20.50;1.00
5930;DHT22;2990;48.746;9.236;2022-07-29T16:32:47;20.50;1.00
5930;DHT22;2990;48.746;9.236;2022-07-29T16:35:13;20.40;1.00
5930;DHT22;2990;48.746;9.236;2022-07-29T16:37:38;20.40;1.00
5930;DHT22;2990;48.746;9.236;2022-07-29T16:40:07;20.40;1.00
5930;DHT22;2990;48.746;9.236;2022-07-29T16:42:35;20.40;1.00
5930;DHT22;2990;48.746;9.236;2022-07-29T16:45:03;20.40;1.00
5930;DHT22;2990;48.746;9.236;2022-07-29T16:47:30;20.40;12.20
5930;DHT22;2990;48.746;9.236;2022-07-29T16:49:55;20.40;20.90
5930;DHT22;2990;48.746;9.236;2022-07-29T16:52:21;20.40;34.50
5930;DHT22;2990;48.746;9.236;2022-07-29T16:54:47;20.40;28.80
5930;DHT22;2990;48.746;9.236;2022-07-29T16:57:13;20.40;31.50
5930;DHT22;2990;48.746;9.236;2022-07-29T16:59:39;20.40;37.30
5930;DHT22;2990;48.746;9.236;2022-07-29T17:02:04;20.30;36.00
5930;DHT22;2990;48.746;9.236;2022-07-29T17:04:31;20.40;39.00
5930;DHT22;2990;48.746;9.236;2022-07-29T17:06:58;20.40;40.60
5930;DHT22;2990;48.746;9.236;2022-07-29T17:09:25;20.40;44.60
5930;DHT22;2990;48.746;9.236;2022-07-29T17:11:50;20.40;31.40
5930;DHT22;2990;48.746;9.236;2022-07-29T17:14:27;20.40;28.50
5930;DHT22;2990;48.746;9.236;2022-07-29T17:16:56;20.30;16.80
5930;DHT22;2990;48.746;9.236;2022-07-29T17:19:22;20.30;9.90
5930;DHT22;2990;48.746;9.236;2022-07-29T17:21:48;20.30;1.00
5930;DHT22;2990;48.746;9.236;2022-07-29T17:24:13;20.30;1.00
5930;DHT22;2990;48.746;9.236;2022-07-29T17:26:39;20.30;1.00
5930;DHT22;2990;48.746;9.236;2022-07-29T17:29:07;20.30;1.00
5930;DHT22;2990;48.746;9.236;2022-07-29T17:31:33;20.20;1.00
5930;DHT22;2990;48.746;9.236;2022-07-29T17:33:59;20.30;1.00
5930;DHT22;2990;48.746;9.236;2022-07-29T17:36:27;20.30;1.00
5930;DHT22;2990;48.746;9.236;2022-07-29T17:38:55;20.30;1.00
5930;DHT22;2990;48.746;9.236;2022-07-29T17:41:22;20.30;1.00
5930;DHT22;2990;48.746;9.236;2022-07-29T17:43:49;20.40;1.00
5930;DHT22;2990;48.746;9.236;2022-07-29T17:46:20;20.40;1.00
5930;DHT22;2990;48.746;9.236;2022-07-29T17:48:53;20.40;1.00
5930;DHT22;2990;48.746;9.236;2022-07-29T17:51:20;20.50;1.00
5930;DHT22;2990;48.746;9.236;2022-07-29T17:53:45;20.50;1.00
5930;DHT22;2990;48.746;9.236;2022-07-29T17:56:11;20.60;1.00
5930;DHT22;2990;48.746;9.236;2022-07-29T17:58:37;20.60;1.00
5930;DHT22;2990;48.746;9.236;2022-07-29T18:01:03;20.70;99.90
5930;DHT22;2990;48.746;9.236;2022-07-29T18:03:29;20.70;1.00
5930;DHT22;2990;48.746;9.236;2022-07-29T18:05:55;20.70;99.90
5930;DHT22;2990;48.746;9.236;2022-07-29T18:08:20;20.70;1.00
5930;DHT22;2990;48.746;9.236;2022-07-29T18:10:46;20.70;1.00
5930;DHT22;2990;48.746;9.236;2022-07-29T18:13:12;20.70;1.00
5930;DHT22;2990;48.746;9.236;2022-07-29T18:15:38;20.80;1.00
5930;DHT22;2990;48.746;9.236;2022-07-29T18:18:04;20.80;1.00
5930;DHT22;2990;48.746;9.236;2022-07-29T18:20:30;20.70;59.00
5930;DHT22;2990;48.746;9.236;2022-07-29T18:22:56;20.70;99.90
5930;DHT22;2990;48.746;9.236;2022-07-29T18:25:22;20.70;25.80
5930;DHT22;2990;48.746;9.236;2022-07-29T18:27:48;20.70;99.90
5930;DHT22;2990;48.746;9.236;2022-07-29T18:30:14;20.80;99.90
5930;DHT22;2990;48.746;9.236;2022-07-29T18:32:40;20.70;97.90
5930;DHT22;2990;48.746;9.236;2022-07-29T18:35:06;20.70;99.90
5930;DHT22;2990;48.746;9.236;2022-07-29T18:37:31;20.60;99.90
5930;DHT22;2990;48.746;9.236;2022-07-29T18:39:58;20.60;99.90
5930;DHT22;2990;48.746;9.236;2022-07-29T18:42:24;20.60;99.90
5930;DHT22;2990;48.746;9.236;2022-07-29T18:44:49;20.60;99.90
5930;DHT22;2990;48.746;9.236;2022-07-29T18:47:15;20.60;99.90
5930;DHT22;2990;48.746;9.236;2022-07-29T18:49:41;20.50;1.00
5930;DHT22;2990;48.746;9.236;2022-07-29T18:52:06;20.40;1.00
5930;DHT22;2990;48.746;9.236;2022-07-29T18:54:32;20.40;1.00
5930;DHT22;2990;48.746;9.236;2022-07-29T18:56:57;20.20;1.00
5930;DHT22;2990;48.746;9.236;2022-07-29T18:59:23;20.30;1.00
5930;DHT22;2990;48.746;9.236;2022-07-29T19:01:48;20.20;1.00
5930;DHT22;2990;48.746;9.236;2022-07-29T19:04:17;20.20;1.00
5930;DHT22;2990;48.746;9.236;2022-07-29T19:06:43;20.20;1.00
5930;DHT22;2990;48.746;9.236;2022-07-29T19:09:08;20.10;1.00
5930;DHT22;2990;48.746;9.236;2022-07-29T19:11:35;20.10;1.00
5930;DHT22;2990;48.746;9.236;2022-07-29T19:14:01;20.10;1.00
5930;DHT22;2990;48.746;9.236;2022-07-29T19:16:27;20.10;1.00
5930;DHT22;2990;48.746;9.236;2022-07-29T19:18:53;20.00;1.00
5930;DHT22;2990;48.746;9.236;2022-07-29T19:21:19;19.90;1.00
5930;DHT22;2990;48.746;9.236;2022-07-29T19:23:45;19.90;1.00
5930;DHT22;2990;48.746;9.236;2022-07-29T19:26:11;19.90;1.00
5930;DHT22;2990;48.746;9.236;2022-07-29T19:28:36;19.90;1.00
5930;DHT22;2990;48.746;9.236;2022-07-29T19:31:02;20.00;1.00
5930;DHT22;2990;48.746;9.236;2022-07-29T19:33:28;19.80;1.00
5930;DHT22;2990;48.746;9.236;2022-07-29T19:35:54;19.70;1.00
5930;DHT22;2990;48.746;9.236;2022-07-29T19:38:20;19.70;99.90
5930;DHT22;2990;48.746;9.236;2022-07-29T19:40:45;19.70;99.90
5930;DHT22;2990;48.746;9.236;2022-07-29T19:43:12;19.70;1.00
5930;DHT22;2990;48.746;9.236;2022-07-29T19:45:38;19.70;1.00
5930;DHT22;2990;48.746;9.236;2022-07-29T19:48:04;19.70;99.90
5930;DHT22;2990;48.746;9.236;2022-07-29T19:50:30;19.70;99.90
5930;DHT22;2990;48.746;9.236;2022-07-29T19:52:56;19.70;16.90
5930;DHT22;2990;48.746;9.236;2022-07-29T19:55:22;19.70;1.00
5930;DHT22;2990;48.746;9.236;2022-07-29T19:57:48;19.60;1.00
5930;DHT22;2990;48.746;9.236;2022-07-29T20:00:14;19.60;1.00
5930;DHT22;2990;48.746;9.236;2022-07-29T20:02:41;19.60;1.00
5930;DHT22;2990;48.746;9.236;2022-07-29T20:05:08;19.50;1.00
5930;DHT22;2990;48.746;9.236;2022-07-29T20:07:34;19.60;1.00
5930;DHT22;2990;48.746;9.236;2022-07-29T20:09:59;19.60;99.90
5930;DHT22;2990;48.746;9.236;2022-07-29T20:12:25;19.60;1.00
5930;DHT22;2990;48.746;9.236;2022-07-29T20:14:51;19.50;1.00
5930;DHT22;2990;48.746;9.236;2022-07-29T20:17:17;19.50;99.90
5930;DHT22;2990;48.746;9.236;2022-07-29T20:19:49;19.50;99.90
5930;DHT22;2990;48.746;9.236;2022-07-29T20:22:16;19.40;1.00
5930;DHT22;2990;48.746;9.236;2022-07-29T20:24:43;19.60;99.90
5930;DHT22;2990;48.746;9.236;2022-07-29T20:27:08;19.50;1.00
5930;DHT22;2990;48.746;9.236;2022-07-29T20:29:35;19.50;35.20
5930;DHT22;2990;48.746;9.236;2022-07-29T20:32:01;19.40;1.00
5930;DHT22;2990;48.746;9.236;2022-07-29T20:34:26;19.40;1.00
5930;DHT22;2990;48.746;9.236;2022-07-29T20:36:52;19.40;1.00
5930;DHT22;2990;48.746;9.236;2022-07-29T20:39:18;19.60;99.90
5930;DHT22;2990;48.746;9.236;2022-07-29T20:41:46;19.60;1.00